Time;durP1;ratioP1;P1;durP2;ratioP2;P2;SDS_P1;SDS_P2;PMS_P1;PMS_P2;Temp;Humidity;BMP_temperature;BMP_pressure;BME280_temperature;BME280_humidity;BME280_pressure;Samples;Min_cycle;Max_cycle;Signal;HPM_P1;HPM_P2
2023/01/05 00:01:36;;;;;;;30.08;4.95;;;;;;;9.73;100.00;101380.38;5075239;28;20044;-60
2023/01/05 00:04:05;;;;;;;24.00;4.82;;;;;;;9.77;100.00;101392.41;5073747;28;20052;-60
2023/01/05 00:06:34;;;;;;;19.80;4.32;;;;;;;9.78;100.00;101390.66;5075001;28;20079;-60
2023/01/05 00:09:03;;;;;;;30.20;4.70;;;;;;;9.69;100.00;101399.84;5072825;28;20053;-60
2023/01/05 00:22:44;;;;;;;25.10;4.18;;;;;;;9.47;100.00;101381.75;5074465;28;20037;-60
2023/01/05 00:25:15;;;;;;;25.52;5.13;;;;;;;9.45;100.00;101381.84;5074784;28;20506;-60
2023/01/05 00:27:46;;;;;;;29.83;4.88;;;;;;;9.47;100.00;101384.38;5074602;28;20079;-60
2023/01/05 00:30:16;;;;;;;25.48;4.13;;;;;;;9.45;100.00;101391.50;5073934;28;20033;-60
2023/01/05 00:32:45;;;;;;;28.38;4.90;;;;;;;9.43;100.00;101390.72;5073969;28;20522;-60
2023/01/05 00:35:15;;;;;;;30.50;4.63;;;;;;;9.38;100.00;101390.97;5068782;28;20531;-60
2023/01/05 00:37:44;;;;;;;29.98;4.20;;;;;;;9.37;100.00;101393.66;5071295;28;20048;-60
2023/01/05 00:40:14;;;;;;;30.38;4.45;;;;;;;9.29;100.00;101394.06;5074416;28;20053;-60
2023/01/05 00:42:42;;;;;;;27.02;4.68;;;;;;;9.22;100.00;101393.50;5070996;28;20165;-60
2023/01/05 00:45:14;;;;;;;27.92;4.63;;;;;;;9.26;100.00;101395.06;5069876;28;20079;-60
2023/01/05 00:47:43;;;;;;;24.90;4.45;;;;;;;9.19;100.00;101388.44;5073905;28;20078;-60
2023/01/05 00:50:14;;;;;;;18.77;3.67;;;;;;;9.18;100.00;101383.25;5074359;28;20056;-60
2023/01/05 00:52:43;;;;;;;30.58;5.63;;;;;;;9.12;100.00;101377.38;5073702;28;20403;-60
2023/01/05 00:55:12;;;;;;;28.75;5.05;;;;;;;9.13;100.00;101386.97;5072834;28;20185;-60
2023/01/05 00:57:40;;;;;;;28.30;4.68;;;;;;;9.05;100.00;101383.00;5074160;28;20044;-52
2023/01/05 01:00:15;;;;;;;26.95;4.70;;;;;;;8.99;100.00;101385.97;5072791;28;20047;-48
2023/01/05 01:02:44;;;;;;;24.70;4.85;;;;;;;8.93;100.00;101393.19;5070394;28;20040;-51
2023/01/05 01:05:12;;;;;;;28.13;4.88;;;;;;;8.91;100.00;101399.44;5069637;28;20071;-52
2023/01/05 01:07:41;;;;;;;27.80;4.78;;;;;;;8.90;100.00;101401.22;5070646;28;20079;-51
2023/01/05 01:10:10;;;;;;;30.27;5.30;;;;;;;8.84;100.00;101403.31;5073644;28;20337;-53
2023/01/05 01:12:38;;;;;;;27.58;4.93;;;;;;;8.87;100.00;101406.59;5073601;28;20040;-52
2023/01/05 01:15:08;;;;;;;33.75;5.07;;;;;;;8.85;100.00;101421.59;5073732;28;20047;-49
2023/01/05 01:17:38;;;;;;;29.50;5.05;;;;;;;8.79;100.00;101422.75;5072400;28;20059;-52
2023/01/05 01:20:07;;;;;;;30.23;4.97;;;;;;;8.80;100.00;101426.19;5071251;28;20151;-52
2023/01/05 01:22:35;;;;;;;27.92;5.30;;;;;;;8.79;100.00;101421.88;5069067;28;20140;-52
2023/01/05 01:25:04;;;;;;;30.35;4.90;;;;;;;8.78;100.00;101422.78;5073138;28;20498;-48
2023/01/05 01:27:32;;;;;;;30.70;5.10;;;;;;;8.79;100.00;101427.13;5072970;28;20094;-51
2023/01/05 01:30:01;;;;;;;36.58;5.25;;;;;;;8.76;100.00;101422.03;5073256;28;20052;-50
2023/01/05 01:32:29;;;;;;;28.80;4.57;;;;;;;8.75;100.00;101425.56;5070434;28;20541;-53
2023/01/05 01:34:59;;;;;;;33.28;5.55;;;;;;;8.72;100.00;101434.44;5067503;28;20431;-53
2023/01/05 01:37:27;;;;;;;29.90;5.00;;;;;;;8.73;100.00;101437.91;5071858;28;20044;-51
2023/01/05 01:39:58;;;;;;;32.72;5.13;;;;;;;8.75;100.00;101441.31;5073504;28;20040;-52
2023/01/05 01:42:26;;;;;;;26.30;5.00;;;;;;;8.73;100.00;101449.25;5072407;28;20048;-50
2023/01/05 01:44:57;;;;;;;26.83;4.65;;;;;;;8.72;100.00;101455.41;5073169;28;20512;-52
2023/01/05 01:47:35;;;;;;;30.17;4.78;;;;;;;8.74;100.00;101455.31;5073288;28;20364;-53
2023/01/05 01:50:14;;;;;;;30.90;4.97;;;;;;;8.71;100.00;101453.72;5072831;28;20068;-52
2023/01/05 01:52:45;;;;;;;34.10;4.85;;;;;;;8.69;100.00;101455.56;5067476;28;20052;-52
2023/01/05 01:55:14;;;;;;;36.45;5.43;;;;;;;8.73;100.00;101469.38;5070740;28;20147;-53
2023/01/05 01:57:43;;;;;;;27.38;4.78;;;;;;;8.75;100.00;101465.78;5072788;28;20049;-52
2023/01/05 02:00:14;;;;;;;34.80;5.50;;;;;;;8.79;100.00;101456.84;5072898;28;20048;-52
2023/01/05 02:02:42;;;;;;;35.17;5.90;;;;;;;8.79;100.00;101458.59;5073205;28;20507;-52
2023/01/05 02:05:15;;;;;;;29.05;4.55;;;;;;;8.78;100.00;101462.13;5072863;28;20044;-52
2023/01/05 02:07:46;;;;;;;32.95;5.05;;;;;;;8.83;100.00;101465.38;5072659;28;20050;-52
2023/01/05 02:10:17;;;;;;;29.10;4.68;;;;;;;8.87;100.00;101466.94;5069970;28;20036;-52
2023/01/05 02:13:02;;;;;;;30.88;5.30;;;;;;;8.84;100.00;101467.09;5067846;28;20542;-51
2023/01/05 02:15:42;;;;;;;27.65;4.43;;;;;;;8.83;100.00;101469.78;5071547;28;20392;-60
2023/01/05 02:18:31;;;;;;;36.03;5.53;;;;;;;8.83;100.00;101465.38;5072700;28;20054;-59
2023/01/05 02:21:15;;;;;;;21.55;4.38;;;;;;;8.85;100.00;101470.56;5068324;28;20056;-60
2023/01/05 02:24:32;;;;;;;26.67;4.72;;;;;;;8.87;100.00;101471.34;5069184;28;20090;-59
2023/01/05 02:27:25;;;;;;;27.35;5.22;;;;;;;8.92;100.00;101469.34;5069356;28;20098;-60
2023/01/05 02:30:13;;;;;;;33.95;4.47;;;;;;;8.91;100.00;101459.78;5067991;28;20454;-59
2023/01/05 02:32:53;;;;;;;25.92;5.00;;;;;;;8.91;100.00;101458.00;5071628;28;20426;-59
2023/01/05 02:35:30;;;;;;;26.35;4.50;;;;;;;8.92;100.00;101451.84;5072360;28;20400;-59
2023/01/05 02:38:07;;;;;;;31.95;5.18;;;;;;;8.94;100.00;101455.25;5072776;28;20037;-59
2023/01/05 02:40:39;;;;;;;25.98;4.07;;;;;;;8.97;100.00;101464.72;5072420;28;20052;-59
2023/01/05 02:43:09;;;;;;;33.17;5.20;;;;;;;8.96;100.00;101458.63;5072495;28;20574;-60
2023/01/05 02:45:38;;;;;;;31.33;4.38;;;;;;;8.93;100.00;101471.03;5069272;28;20057;-59
2023/01/05 02:48:10;;;;;;;29.52;5.40;;;;;;;8.93;100.00;101471.91;5067061;28;20048;-59
2023/01/05 02:50:43;;;;;;;26.98;4.60;;;;;;;8.93;100.00;101471.91;5104527;28;20064;-60
2023/01/05 02:53:17;;;;;;;29.45;4.70;;;;;;;8.99;100.00;101467.28;5074244;28;20060;-60
2023/01/05 02:55:51;;;;;;;29.75;4.57;;;;;;;8.97;100.00;101477.84;5078777;28;20048;-51
2023/01/05 02:58:23;;;;;;;28.85;4.80;;;;;;;8.98;100.00;101470.84;5078910;28;20054;-60
2023/01/05 03:00:58;;;;;;;29.30;5.35;;;;;;;9.05;100.00;101480.09;5078260;28;20136;-59
2023/01/05 03:03:32;;;;;;;28.55;4.50;;;;;;;9.02;100.00;101480.25;5074007;28;20407;-52
2023/01/05 03:06:05;;;;;;;27.70;5.20;;;;;;;9.04;100.00;101479.25;5076030;28;20067;-60
2023/01/05 03:08:38;;;;;;;25.35;4.78;;;;;;;9.05;100.00;101482.72;5078846;28;20067;-60
2023/01/05 03:14:01;;;;;;;30.67;5.20;;;;;;;9.06;100.00;101490.50;5074355;28;20044;-60
2023/01/05 03:16:36;;;;;;;30.33;5.18;;;;;;;9.03;100.00;101482.78;5076121;28;20124;-60
2023/01/05 03:36:09;;;;;;;23.77;4.55;;;;;;;9.06;100.00;101477.38;5073296;28;19931;-60
2023/01/05 03:38:42;;;;;;;31.48;4.35;;;;;;;9.07;100.00;101478.25;5074662;28;20661;-52
2023/01/05 03:41:14;;;;;;;26.90;4.60;;;;;;;9.08;100.00;101482.56;5078379;28;20060;-61
2023/01/05 03:43:43;;;;;;;30.67;5.10;;;;;;;9.09;100.00;101486.88;5078235;28;20101;-60
2023/01/05 03:46:14;;;;;;;30.52;4.50;;;;;;;9.10;100.00;101483.34;5074461;28;20076;-60
2023/01/05 03:48:43;;;;;;;28.20;4.65;;;;;;;9.14;100.00;101487.53;5073399;28;20040;-51
2023/01/05 03:51:15;;;;;;;28.85;5.20;;;;;;;9.10;100.00;101485.97;5077271;28;20064;-60
2023/01/05 03:53:43;;;;;;;34.30;4.50;;;;;;;9.08;100.00;101490.44;5073543;28;20065;-59
2023/01/05 03:56:11;;;;;;;31.65;4.65;;;;;;;9.07;100.00;101481.72;5075793;28;20074;-60
2023/01/05 03:58:39;;;;;;;25.48;4.45;;;;;;;9.08;100.00;101483.44;5078385;28;20040;-60
2023/01/05 04:01:07;;;;;;;27.63;4.75;;;;;;;9.07;100.00;101491.38;5077828;28;20056;-60
2023/01/05 04:03:36;;;;;;;33.75;5.13;;;;;;;9.10;100.00;101493.84;5077475;28;20544;-59
2023/01/05 04:06:04;;;;;;;28.38;4.93;;;;;;;9.10;100.00;101491.22;5069928;28;20768;-60
2023/01/05 04:08:34;;;;;;;28.17;4.30;;;;;;;9.09;100.00;101494.75;5072464;28;20670;-59
2023/01/05 04:11:13;;;;;;;26.38;4.90;;;;;;;9.10;100.00;101491.22;5074902;28;20391;-60
2023/01/05 04:13:41;;;;;;;27.30;4.50;;;;;;;9.11;100.00;101491.16;5074945;28;20037;-60
2023/01/05 04:16:10;;;;;;;28.67;4.97;;;;;;;9.14;100.00;101490.16;5074690;28;20098;-60
2023/01/05 04:18:38;;;;;;;27.52;4.80;;;;;;;9.12;100.00;101494.59;5074480;28;20052;-60
2023/01/05 04:21:07;;;;;;;25.95;4.57;;;;;;;9.14;100.00;101498.84;5074548;28;20068;-59
2023/01/05 04:23:36;;;;;;;22.75;5.05;;;;;;;9.16;100.00;101497.94;5074846;28;20522;-60
2023/01/05 04:26:05;;;;;;;28.70;4.22;;;;;;;9.14;100.00;101498.84;5074382;28;20041;-59
2023/01/05 04:28:33;;;;;;;26.33;4.47;;;;;;;9.11;100.00;101495.56;5074043;28;20072;-60
2023/01/05 04:31:01;;;;;;;27.38;4.32;;;;;;;9.12;100.00;101498.09;5074608;28;20045;-60
2023/01/05 04:33:29;;;;;;;27.13;4.32;;;;;;;9.12;100.00;101497.22;5071159;28;20525;-59
2023/01/05 04:35:57;;;;;;;29.52;4.90;;;;;;;9.12;100.00;101505.09;5074343;28;20094;-60
2023/01/05 04:38:25;;;;;;;29.48;3.92;;;;;;;9.10;100.00;101502.56;5074493;28;20061;-60
2023/01/05 04:40:55;;;;;;;29.25;4.88;;;;;;;9.13;100.00;101510.31;5069626;28;20091;-60
2023/01/05 04:43:23;;;;;;;29.52;5.13;;;;;;;9.15;100.00;101507.59;5070335;28;20052;-60
2023/01/05 04:45:51;;;;;;;23.30;4.43;;;;;;;9.12;100.00;101505.09;5073938;28;20099;-60
2023/01/05 04:48:19;;;;;;;32.95;4.30;;;;;;;9.13;100.00;101507.69;5074149;28;20514;-60
2023/01/05 04:50:53;;;;;;;26.83;4.07;;;;;;;9.12;100.00;101513.84;5073905;28;20058;-61
2023/01/05 04:53:22;;;;;;;25.90;4.85;;;;;;;9.11;100.00;101511.28;5073464;28;20052;-60
2023/01/05 04:55:50;;;;;;;30.95;4.85;;;;;;;9.09;100.00;101515.75;5073637;28;20044;-60
2023/01/05 04:58:20;;;;;;;26.15;4.40;;;;;;;9.12;100.00;101523.47;5072467;28;20079;-60
2023/01/05 05:00:49;;;;;;;24.45;3.95;;;;;;;9.13;100.00;101526.06;5069267;28;20057;-59
2023/01/05 05:03:17;;;;;;;25.30;4.90;;;;;;;9.12;100.00;101519.09;5071463;28;20041;-60
2023/01/05 05:05:46;;;;;;;24.02;4.65;;;;;;;9.09;100.00;101523.63;5073888;28;20041;-60
2023/01/05 05:08:14;;;;;;;23.35;4.70;;;;;;;9.05;100.00;101520.31;5069888;28;20055;-60
2023/01/05 05:10:42;;;;;;;32.75;4.93;;;;;;;9.07;100.00;101521.09;5070299;28;20052;-60
2023/01/05 05:13:10;;;;;;;26.92;4.78;;;;;;;9.07;100.00;101530.75;5073933;28;20048;-59
2023/01/05 05:15:39;;;;;;;26.25;4.30;;;;;;;9.09;100.00;101537.63;5070746;28;20553;-59
2023/01/05 05:18:08;;;;;;;27.63;3.72;;;;;;;9.11;100.00;101533.13;5068125;28;20040;-59
2023/01/05 05:20:37;;;;;;;27.27;4.53;;;;;;;9.11;100.00;101533.13;5073015;28;20043;-60
2023/01/05 05:23:06;;;;;;;33.88;4.07;;;;;;;9.11;100.00;101538.38;5072526;28;20056;-59
2023/01/05 05:25:34;;;;;;;30.27;4.88;;;;;;;9.10;100.00;101546.31;5072790;28;20468;-59
2023/01/05 05:28:02;;;;;;;21.42;4.53;;;;;;;9.13;100.00;101552.28;5070440;28;20060;-59
2023/01/05 05:30:30;;;;;;;25.25;4.47;;;;;;;9.13;100.00;101544.41;5068799;28;20094;-60
2023/01/05 05:32:59;;;;;;;25.35;4.25;;;;;;;9.13;100.00;101547.03;5071484;28;20460;-60
2023/01/05 05:35:27;;;;;;;27.70;5.10;;;;;;;9.10;100.00;101551.56;5072843;28;20066;-59
2023/01/05 05:37:55;;;;;;;27.50;4.72;;;;;;;9.08;100.00;101559.53;5073039;28;20048;-59
2023/01/05 05:40:25;;;;;;;28.05;4.65;;;;;;;9.12;100.00;101561.09;5072847;28;20071;-59
2023/01/05 05:42:53;;;;;;;20.90;3.83;;;;;;;9.18;100.00;101570.44;5072987;28;20071;-59
2023/01/05 05:45:21;;;;;;;27.38;5.82;;;;;;;9.18;100.00;101566.97;5071969;28;20032;-60
2023/01/05 05:47:49;;;;;;;28.27;4.25;;;;;;;9.14;100.00;101574.13;5073133;28;20044;-59
2023/01/05 05:50:19;;;;;;;24.83;3.83;;;;;;;9.11;100.00;101580.38;5072993;28;20409;-60
2023/01/05 05:52:47;;;;;;;28.65;4.15;;;;;;;9.16;100.00;101577.50;5070467;28;20052;-60
2023/01/05 05:55:15;;;;;;;25.63;3.78;;;;;;;9.12;100.00;101584.69;5068600;28;20145;-59
2023/01/05 05:57:43;;;;;;;28.85;4.30;;;;;;;9.16;100.00;101582.75;5071381;28;20057;-52
2023/01/05 06:00:13;;;;;;;27.20;4.53;;;;;;;9.17;100.00;101584.47;5074219;28;20075;-51
2023/01/05 06:02:41;;;;;;;27.23;4.22;;;;;;;9.16;100.00;101589.78;5072414;28;20067;-50
2023/01/05 06:05:09;;;;;;;25.98;4.45;;;;;;;9.18;100.00;101590.59;5071507;28;20064;-52
2023/01/05 06:07:39;;;;;;;28.77;4.28;;;;;;;9.19;100.00;101589.63;5068323;28;20045;-51
2023/01/05 06:10:08;;;;;;;31.42;4.90;;;;;;;9.22;100.00;101600.00;5051071;28;20055;-50
2023/01/05 06:12:37;;;;;;;30.20;6.60;;;;;;;9.18;100.00;101595.84;5052589;28;20439;-49
2023/01/05 06:15:06;;;;;;;28.40;4.07;;;;;;;9.20;100.00;101599.22;5052677;28;20532;-52
2023/01/05 06:17:34;;;;;;;19.60;3.65;;;;;;;9.26;100.00;101605.03;5052790;28;20430;-60
2023/01/05 06:20:02;;;;;;;25.02;4.90;;;;;;;9.25;100.00;101605.94;5052455;28;20045;-60
2023/01/05 06:22:30;;;;;;;27.23;4.10;;;;;;;9.25;100.00;101615.63;5052225;28;20056;-59
2023/01/05 06:25:00;;;;;;;25.85;4.65;;;;;;;9.19;100.00;101610.63;5052180;28;20053;-59
2023/01/05 06:27:28;;;;;;;26.35;4.90;;;;;;;9.19;100.00;101615.88;5068800;28;20053;-59
2023/01/05 06:29:56;;;;;;;34.83;5.00;;;;;;;9.18;100.00;101622.09;5069943;28;20045;-59
2023/01/05 06:32:24;;;;;;;21.77;4.45;;;;;;;9.20;100.00;101623.69;5066298;28;20048;-59
2023/01/05 06:34:52;;;;;;;33.30;5.45;;;;;;;9.22;100.00;101626.25;5070943;28;20475;-59
2023/01/05 06:37:20;;;;;;;22.77;4.15;;;;;;;9.25;100.00;101619.06;5070447;28;20055;-59
2023/01/05 06:39:53;;;;;;;24.42;4.30;;;;;;;9.20;100.00;101625.47;5067458;28;20102;-59
2023/01/05 06:42:23;;;;;;;33.28;4.88;;;;;;;9.23;100.00;101631.44;5059481;28;20044;-60
2023/01/05 06:44:51;;;;;;;23.20;4.47;;;;;;;9.24;100.00;101635.78;5072100;28;20048;-59
2023/01/05 06:47:19;;;;;;;23.58;4.55;;;;;;;9.22;100.00;101640.22;5072136;28;20098;-59
2023/01/05 06:49:47;;;;;;;27.25;4.03;;;;;;;9.24;100.00;101641.03;5072040;28;20094;-59
2023/01/05 06:52:16;;;;;;;29.08;4.82;;;;;;;9.24;100.00;101646.28;5071510;28;20128;-58
2023/01/05 06:54:44;;;;;;;20.33;3.90;;;;;;;9.23;100.00;101644.56;5066558;28;20101;-59
2023/01/05 06:57:13;;;;;;;29.52;5.22;;;;;;;9.25;100.00;101647.94;5068218;28;20064;-59
2023/01/05 06:59:42;;;;;;;21.67;4.20;;;;;;;9.28;100.00;101652.22;5071920;28;20060;-59
2023/01/05 07:02:14;;;;;;;22.25;4.07;;;;;;;9.26;100.00;101656.69;5071759;28;20059;-59
2023/01/05 07:04:43;;;;;;;21.88;4.00;;;;;;;9.28;100.00;101652.22;5072074;28;20476;-59
2023/01/05 07:07:12;;;;;;;27.67;4.43;;;;;;;9.29;100.00;101652.13;5071923;28;20098;-59
2023/01/05 07:09:40;;;;;;;34.90;5.28;;;;;;;9.24;100.00;101655.91;5072202;28;20498;-48
2023/01/05 07:12:09;;;;;;;24.83;4.60;;;;;;;9.24;100.00;101653.28;5072351;28;20131;-53
2023/01/05 07:14:37;;;;;;;29.63;4.63;;;;;;;9.29;100.00;101660.00;5072120;28;20045;-54
2023/01/05 07:17:07;;;;;;;27.02;4.50;;;;;;;9.25;100.00;101650.56;5066627;28;20059;-59
2023/01/05 07:19:37;;;;;;;26.63;5.27;;;;;;;9.25;100.00;101663.69;5069292;28;20106;-58
2023/01/05 07:22:05;;;;;;;27.80;4.70;;;;;;;9.29;100.00;101667.88;5071907;28;20063;-59
2023/01/05 07:24:33;;;;;;;25.23;4.63;;;;;;;9.26;100.00;101662.78;5069478;28;20751;-59
2023/01/05 07:27:02;;;;;;;27.20;5.30;;;;;;;9.28;100.00;101671.44;5067300;28;21043;-59
2023/01/05 07:29:36;;;;;;;27.35;4.65;;;;;;;9.26;100.00;101665.41;5070949;28;20052;-59
2023/01/05 07:32:07;;;;;;;29.08;4.65;;;;;;;9.26;100.00;101670.66;5071007;28;20060;-59
2023/01/05 07:34:35;;;;;;;31.27;5.20;;;;;;;9.34;100.00;101677.31;5071661;28;20396;-59
2023/01/05 07:37:04;;;;;;;27.00;4.80;;;;;;;9.31;100.00;101683.56;5069611;28;20067;-59
2023/01/05 07:39:32;;;;;;;26.55;4.88;;;;;;;9.30;100.00;101674.84;5067254;28;20102;-59
2023/01/05 07:42:00;;;;;;;28.10;4.97;;;;;;;9.35;100.00;101681.66;5074083;28;20124;-59
2023/01/05 07:44:28;;;;;;;20.42;3.95;;;;;;;9.32;100.00;101679.19;5075262;28;20052;-59
2023/01/05 07:46:57;;;;;;;31.70;4.50;;;;;;;9.32;100.00;101689.69;5073835;28;20075;-59
2023/01/05 07:49:28;;;;;;;31.08;4.97;;;;;;;9.30;100.00;101685.34;5061309;28;20052;-59
2023/01/05 07:51:56;;;;;;;35.22;4.60;;;;;;;9.40;100.00;101682.28;5070628;28;20124;-59
2023/01/05 07:54:24;;;;;;;23.10;3.95;;;;;;;9.36;100.00;101686.81;5073483;28;20060;-59
2023/01/05 07:56:52;;;;;;;31.27;4.88;;;;;;;9.35;100.00;101692.16;5074705;28;20083;-59
2023/01/05 07:59:21;;;;;;;28.65;5.35;;;;;;;9.40;100.00;101695.41;5074746;28;20052;-58
2023/01/05 08:01:49;;;;;;;23.10;4.95;;;;;;;9.35;100.00;101702.66;5074737;28;20444;-59
2023/01/05 08:04:17;;;;;;;28.25;4.47;;;;;;;9.35;100.00;101702.66;5074708;28;20044;-59
2023/01/05 08:06:46;;;;;;;29.30;4.30;;;;;;;9.38;100.00;101705.13;5074825;28;20079;-59
2023/01/05 08:12:00;;;;;;;25.10;5.30;;;;;;;9.40;100.00;101704.13;5069644;28;20484;-59
2023/01/05 08:14:28;;;;;;;27.80;4.80;;;;;;;9.39;100.00;101712.09;5075064;28;20483;-59
2023/01/05 08:16:56;;;;;;;27.70;5.00;;;;;;;9.39;100.00;101712.94;5074383;28;20040;-59
2023/01/05 08:19:24;;;;;;;31.40;5.00;;;;;;;9.40;100.00;101706.75;5075147;28;20036;-57
2023/01/05 08:21:54;;;;;;;30.88;5.60;;;;;;;9.40;100.00;101712.00;5074308;28;20036;-53
2023/01/05 08:24:22;;;;;;;29.95;4.90;;;;;;;9.42;100.00;101715.44;5073860;28;20040;-59
2023/01/05 08:26:50;;;;;;;24.80;4.93;;;;;;;9.43;100.00;101724.16;5070350;28;20102;-59
2023/01/05 08:29:19;;;;;;;29.27;4.90;;;;;;;9.41;100.00;101729.47;5072291;28;20056;-59
2023/01/05 08:31:47;;;;;;;22.63;4.55;;;;;;;9.45;100.00;101735.44;5074262;28;20075;-59
2023/01/05 08:34:15;;;;;;;26.35;5.80;;;;;;;9.46;100.00;101731.88;5073985;28;20048;-59
2023/01/05 08:36:43;;;;;;;23.52;4.68;;;;;;;9.48;100.00;101737.94;5069262;28;20037;-58
2023/01/05 08:39:13;;;;;;;31.05;4.45;;;;;;;9.47;100.00;101741.47;5070695;28;20044;-59
2023/01/05 08:41:41;;;;;;;28.23;4.03;;;;;;;9.47;100.00;101736.22;5071357;28;20053;-59
2023/01/05 08:44:14;;;;;;;26.38;4.00;;;;;;;9.53;100.00;101748.19;5070184;28;20102;-59
2023/01/05 08:46:42;;;;;;;26.88;4.65;;;;;;;9.51;100.00;101740.41;5072362;28;20162;-59
2023/01/05 08:49:11;;;;;;;30.27;4.80;;;;;;;9.48;100.00;101749.28;5074091;28;20044;-59
2023/01/05 08:51:39;;;;;;;34.58;4.43;;;;;;;9.53;100.00;101756.06;5073682;28;20047;-59
2023/01/05 08:54:07;;;;;;;29.38;4.60;;;;;;;9.51;100.00;101771.91;5073949;28;20056;-59
2023/01/05 08:56:39;;;;;;;27.52;4.32;;;;;;;9.55;100.00;101767.38;5070614;28;20059;-59
2023/01/05 08:59:07;;;;;;;24.85;3.92;;;;;;;9.55;100.00;101759.50;5069598;28;20052;-59
2023/01/05 09:01:36;;;;;;;27.65;4.47;;;;;;;9.55;100.00;101767.38;5073070;28;20515;-59
2023/01/05 09:04:05;;;;;;;27.02;4.25;;;;;;;9.57;100.00;101787.41;5073777;28;20061;-59
2023/01/05 09:06:33;;;;;;;26.00;5.05;;;;;;;9.62;100.00;101789.81;5073645;28;20566;-59
2023/01/05 09:09:02;;;;;;;32.47;4.80;;;;;;;9.57;100.00;101786.53;5073770;28;20052;-58
2023/01/05 09:11:30;;;;;;;28.30;5.28;;;;;;;9.57;100.00;101790.03;5073707;28;20403;-58
2023/01/05 09:14:01;;;;;;;25.60;4.97;;;;;;;9.61;100.00;101796.84;5073649;28;20055;-58
2023/01/05 09:16:31;;;;;;;29.58;5.15;;;;;;;9.55;100.00;101799.75;5073894;28;20037;-58
2023/01/05 09:19:19;;;;;;;27.42;4.80;;;;;;;9.55;100.00;101810.25;5073654;28;20094;-59
2023/01/05 09:21:51;;;;;;;24.25;4.80;;;;;;;9.57;100.00;101821.53;5073790;28;20106;-59
2023/01/05 09:24:19;;;;;;;29.65;4.90;;;;;;;9.58;100.00;101817.97;5074880;28;20048;-59
2023/01/05 09:26:47;;;;;;;28.42;4.65;;;;;;;9.59;100.00;101811.81;5073692;28;20056;-58
2023/01/05 09:29:17;;;;;;;24.20;4.15;;;;;;;9.61;100.00;101814.34;5073565;28;20098;-59
2023/01/05 09:31:45;;;;;;;28.23;5.30;;;;;;;9.57;100.00;101818.91;5072603;28;20055;-59
2023/01/05 09:34:13;;;;;;;26.27;5.07;;;;;;;9.58;100.00;101825.00;5070609;28;20044;-59
2023/01/05 09:36:41;;;;;;;25.20;5.35;;;;;;;9.62;100.00;101821.31;5069050;28;20110;-59
2023/01/05 09:39:10;;;;;;;24.40;4.97;;;;;;;9.62;100.00;101829.19;5073164;28;20053;-59
2023/01/05 09:41:43;;;;;;;30.02;5.82;;;;;;;9.62;100.00;101829.19;5071984;28;20053;-59
2023/01/05 09:44:20;;;;;;;24.33;4.35;;;;;;;9.64;100.00;101832.63;5069678;28;20059;-59
2023/01/05 09:46:51;;;;;;;25.05;4.18;;;;;;;9.64;100.00;101836.09;5070398;28;20056;-59
2023/01/05 09:49:23;;;;;;;25.00;3.97;;;;;;;9.69;100.00;101835.88;5072850;28;20495;-59
2023/01/05 09:51:56;;;;;;;30.02;4.90;;;;;;;9.64;100.00;101851.84;5068819;28;20044;-59
2023/01/05 09:54:27;;;;;;;28.98;5.25;;;;;;;9.65;100.00;101852.69;5070207;28;20407;-59
2023/01/05 09:56:57;;;;;;;24.77;4.03;;;;;;;9.69;100.00;101848.16;5072952;28;20048;-53
2023/01/05 09:59:38;;;;;;;24.95;5.00;;;;;;;9.73;100.00;101860.25;5066674;28;20512;-51
2023/01/05 10:02:27;;;;;;;24.33;4.07;;;;;;;9.74;100.00;101852.28;5065844;28;20057;-54
2023/01/05 10:04:56;;;;;;;25.55;5.28;;;;;;;9.74;100.00;101861.94;5069257;28;20514;-53
2023/01/05 10:07:34;;;;;;;25.50;5.05;;;;;;;9.74;100.00;101861.94;5071699;28;20035;-52
2023/01/05 10:10:12;;;;;;;22.20;4.55;;;;;;;9.70;100.00;101866.47;5071833;28;20496;-59
2023/01/05 10:13:05;;;;;;;28.92;4.38;;;;;;;9.71;100.00;101872.59;5068461;28;20139;-60
2023/01/05 10:15:40;;;;;;;25.08;5.05;;;;;;;9.74;100.00;101867.19;5066849;28;20052;-52
2023/01/05 10:18:13;;;;;;;25.77;5.07;;;;;;;9.75;100.00;101869.75;5067284;28;20059;-53
2023/01/05 10:20:53;;;;;;;30.65;4.68;;;;;;;9.77;100.00;101873.16;5071059;28;20086;-53
2023/01/05 10:23:35;;;;;;;27.60;4.75;;;;;;;9.75;100.00;101869.75;5071670;28;20078;-52
2023/01/05 10:26:11;;;;;;;28.65;5.40;;;;;;;9.80;100.00;101872.16;5071218;28;20110;-52
2023/01/05 10:28:46;;;;;;;23.63;4.18;;;;;;;9.81;100.00;101874.72;5071528;28;20045;-52
2023/01/05 10:31:22;;;;;;;25.88;4.60;;;;;;;9.84;100.00;101873.72;5066099;28;20074;-52
2023/01/05 10:33:53;;;;;;;28.10;4.57;;;;;;;9.88;100.00;101877.91;5067652;28;20131;-53
2023/01/05 10:36:42;;;;;;;28.63;4.93;;;;;;;9.88;100.00;101875.28;5070726;28;20503;-52
2023/01/05 10:39:52;;;;;;;31.25;6.15;;;;;;;9.91;100.00;101869.91;5071049;28;20044;-53
2023/01/05 10:42:36;;;;;;;24.98;5.20;;;;;;;9.92;100.00;101879.47;5068647;28;20143;-53
2023/01/05 10:45:09;;;;;;;24.85;4.32;;;;;;;9.90;100.00;101881.34;5071206;28;20072;-51
2023/01/05 10:47:39;;;;;;;24.48;4.30;;;;;;;9.91;100.00;101890.94;5071160;28;20048;-51
2023/01/05 10:50:31;;;;;;;25.15;5.28;;;;;;;9.92;100.00;101878.63;5069883;28;20388;-57
2023/01/05 10:53:05;;;;;;;24.75;4.65;;;;;;;9.96;100.00;101882.81;5068897;28;20060;-53
2023/01/05 10:55:43;;;;;;;30.90;5.10;;;;;;;9.98;100.00;101883.63;5064635;28;20075;-53
2023/01/05 10:58:22;;;;;;;24.48;4.82;;;;;;;9.96;100.00;101888.94;5070341;28;20060;-51
2023/01/05 11:00:52;;;;;;;25.75;5.10;;;;;;;9.96;100.00;101885.47;5068613;28;20049;-52
2023/01/05 11:03:33;;;;;;;22.52;4.75;;;;;;;9.96;100.00;101883.66;5070445;28;20055;-53
2023/01/05 11:06:25;;;;;;;30.42;5.47;;;;;;;10.01;100.00;101875.59;5072236;28;20910;-51
2023/01/05 11:08:54;;;;;;;31.02;4.53;;;;;;;10.01;100.00;101877.34;5072263;28;20127;-50
2023/01/05 11:11:25;;;;;;;25.67;4.57;;;;;;;10.02;100.00;101877.31;5072027;28;20060;-50
2023/01/05 11:13:56;;;;;;;23.02;4.78;;;;;;;10.00;100.00;101873.88;5069145;28;20388;-53
2023/01/05 11:16:26;;;;;;;32.67;4.93;;;;;;;10.04;100.00;101872.81;5069469;28;20056;-53
2023/01/05 11:18:58;;;;;;;26.40;4.63;;;;;;;10.10;100.00;101867.28;5073778;28;20045;-51
2023/01/05 11:21:43;;;;;;;27.80;5.28;;;;;;;10.11;100.00;101873.38;5075143;28;20036;-53
2023/01/05 11:24:27;;;;;;;32.70;5.07;;;;;;;10.08;100.00;101887.53;5075081;28;20032;-60
2023/01/05 11:26:58;;;;;;;33.58;6.18;;;;;;;10.12;100.00;101877.72;5071234;28;20048;-60
2023/01/05 11:29:27;;;;;;;24.70;4.55;;;;;;;10.17;100.00;101881.00;5070083;28;20048;-52
2023/01/05 11:31:58;;;;;;;28.90;5.72;;;;;;;10.13;100.00;101879.44;5073156;28;20052;-54
2023/01/05 11:34:36;;;;;;;29.73;4.85;;;;;;;10.22;100.00;101862.38;5071478;28;20109;-52
2023/01/05 11:37:13;;;;;;;29.70;6.00;;;;;;;10.26;100.00;101869.19;5073380;28;20071;-60
2023/01/05 11:39:52;;;;;;;33.35;5.53;;;;;;;10.30;100.00;101866.31;5055502;28;20050;-60
2023/01/05 11:42:29;;;;;;;30.30;5.32;;;;;;;10.27;100.00;101874.38;5055356;28;20056;-60
2023/01/05 11:44:59;;;;;;;34.55;5.40;;;;;;;10.37;100.00;101863.44;5050577;28;20577;-60
2023/01/05 11:47:33;;;;;;;24.98;4.78;;;;;;;10.45;100.00;101866.56;5052773;28;20568;-60
2023/01/05 11:50:20;;;;;;;25.00;4.97;;;;;;;10.49;100.00;101870.75;5062951;28;20420;-60
2023/01/05 11:52:52;;;;;;;37.60;5.57;;;;;;;10.49;100.00;101876.84;5070321;28;20049;-60
2023/01/05 11:55:30;;;;;;;35.10;6.70;;;;;;;10.60;100.00;101872.84;5072918;28;20532;-51
2023/01/05 11:58:13;;;;;;;30.50;5.28;;;;;;;10.57;100.00;101879.09;5074887;28;20128;-52
2023/01/05 12:01:02;;;;;;;28.25;5.47;;;;;;;10.61;100.00;101871.94;5075177;28;20079;-49
2023/01/05 12:03:49;;;;;;;29.45;4.95;;;;;;;10.61;100.00;101872.78;5075078;28;20531;-53
2023/01/05 12:06:36;;;;;;;26.35;5.85;;;;;;;10.65;100.00;101865.59;5074989;28;20048;-60
2023/01/05 12:09:16;;;;;;;26.33;5.18;;;;;;;10.72;100.00;101866.97;5070955;28;20048;-60
2023/01/05 12:11:53;;;;;;;25.38;6.03;;;;;;;10.71;100.00;101870.53;5071045;28;20041;-60